createdAt,value
2023-07-19T00:03:53.961Z,15.88
2023-07-19T00:08:47.451Z,19.18
2023-07-19T00:13:39.477Z,18.55
2023-07-19T00:18:31.575Z,19.22
2023-07-19T00:23:24.792Z,17.37
2023-07-19T00:28:18.122Z,18.15
2023-07-19T00:33:11.946Z,18.59
2023-07-19T00:38:04.266Z,18.72
2023-07-19T00:42:58.452Z,18.45
2023-07-19T00:47:56.599Z,18.96
2023-07-19T00:52:49.502Z,18.66
2023-07-19T00:57:42.266Z,17.93
2023-07-19T01:02:36.284Z,18.75
2023-07-19T01:07:30.167Z,18.77
2023-07-19T01:12:23.496Z,17.79
2023-07-19T01:17:16.343Z,17.76
2023-07-19T01:22:11.180Z,18.37
2023-07-19T01:27:20.733Z,18.56
2023-07-19T01:32:14.935Z,18.23
2023-07-19T01:37:13.135Z,17.29
2023-07-19T01:42:07.246Z,18.22
2023-07-19T01:47:01.044Z,17.52
2023-07-19T01:51:56.517Z,17.45
2023-07-19T01:56:48.902Z,17.75
2023-07-19T02:01:41.047Z,18.21
2023-07-19T02:06:36.495Z,17.67
2023-07-19T02:11:28.811Z,18.01
2023-07-19T02:16:20.975Z,17.58
2023-07-19T02:21:15.417Z,17.72
2023-07-19T02:26:07.266Z,17.53
2023-07-19T02:31:03.287Z,17.68
2023-07-19T02:35:56.656Z,17.61
2023-07-19T02:40:49.964Z,17.85
2023-07-19T02:45:43.453Z,17.49
2023-07-19T02:50:35.785Z,17.34
2023-07-19T02:55:28.975Z,18.01
2023-07-19T03:00:21.586Z,16.64
2023-07-19T03:05:13.625Z,17.90
2023-07-19T03:10:07.651Z,17.29
2023-07-19T03:15:01.102Z,18.26
2023-07-19T03:19:54.049Z,18.01
2023-07-19T03:24:46.865Z,17.28
2023-07-19T03:29:44.328Z,18.02
2023-07-19T03:34:37.402Z,18.45
2023-07-19T03:39:30.454Z,17.14
2023-07-19T03:44:23.524Z,18.69
2023-07-19T03:49:17.574Z,18.46
2023-07-19T03:54:11.350Z,18.05
2023-07-19T03:59:04.130Z,18.05
2023-07-19T04:03:58.385Z,18.53
2023-07-19T04:08:50.778Z,18.92
2023-07-19T04:13:42.952Z,19.08
2023-07-19T04:18:35.993Z,18.45
2023-07-19T04:23:29.096Z,18.53
2023-07-19T04:28:24.526Z,19.14
2023-07-19T04:33:16.807Z,19.78
2023-07-19T04:38:11.135Z,19.07
2023-07-19T04:43:05.965Z,20.24
2023-07-19T04:48:00.403Z,20.17
2023-07-19T04:52:55.288Z,20.82
2023-07-19T04:57:49.488Z,21.35
2023-07-19T05:02:43.284Z,21.42
2023-07-19T05:07:38.480Z,21.36
2023-07-19T05:12:35.978Z,20.07
2023-07-19T05:17:29.977Z,21.41
2023-07-19T05:22:23.898Z,21.55
2023-07-19T05:27:18.243Z,20.83
2023-07-19T05:32:10.460Z,21.76
2023-07-19T05:37:05.559Z,20.70
2023-07-19T05:41:58.858Z,22.24
2023-07-19T05:46:55.682Z,21.99
2023-07-19T05:51:48.509Z,22.49
2023-07-19T05:56:41.851Z,22.90
2023-07-19T06:01:35.286Z,22.35
2023-07-19T06:06:29.710Z,23.30
2023-07-19T06:11:22.065Z,22.33
2023-07-19T06:16:14.743Z,23.21
2023-07-19T06:21:07.005Z,22.15
2023-07-19T06:25:59.404Z,22.73
2023-07-19T06:30:51.992Z,22.57
2023-07-19T06:35:45.099Z,23.05
2023-07-19T06:40:37.466Z,21.91
2023-07-19T06:45:29.916Z,22.88
2023-07-19T06:50:25.244Z,22.51
2023-07-19T06:55:19.626Z,23.50
2023-07-19T07:00:12.021Z,23.25
2023-07-19T07:05:04.377Z,23.22
2023-07-19T07:09:59.136Z,23.62
2023-07-19T07:14:52.016Z,24.49
2023-07-19T07:19:43.861Z,24.51
2023-07-19T07:24:37.458Z,25.66
2023-07-19T07:29:31.010Z,25.58
2023-07-19T07:34:25.215Z,26.14
2023-07-19T07:39:17.886Z,25.96
2023-07-19T07:44:09.994Z,26.56
2023-07-19T07:49:02.157Z,27.31
2023-07-19T07:53:55.554Z,29.36
2023-07-19T07:58:48.760Z,29.80
2023-07-19T08:03:42.536Z,27.51
2023-07-19T08:08:34.947Z,29.76
2023-07-19T08:13:26.877Z,30.57
2023-07-19T08:18:19.170Z,31.55
2023-07-19T08:23:12.137Z,30.99
2023-07-19T08:28:08.499Z,30.18
2023-07-19T08:33:03.139Z,29.35
2023-07-19T08:37:55.516Z,29.07
2023-07-19T08:42:52.538Z,28.75
2023-07-19T08:47:47.621Z,28.92
2023-07-19T08:52:44.014Z,28.73
2023-07-19T08:57:42.433Z,28.33
2023-07-19T09:02:34.841Z,28.48
2023-07-19T09:07:28.047Z,29.87
2023-07-19T09:12:24.792Z,31.24
2023-07-19T09:17:18.541Z,29.37
2023-07-19T09:22:11.144Z,27.68
2023-07-19T09:27:06.745Z,26.99
2023-07-19T09:32:01.044Z,26.43
2023-07-19T09:36:55.389Z,27.83
2023-07-19T09:41:48.360Z,28.93
2023-07-19T09:46:43.011Z,29.86
2023-07-19T09:51:37.154Z,30.28
2023-07-19T09:56:33.121Z,32.09
2023-07-19T10:01:26.034Z,32.64
2023-07-19T10:06:18.993Z,31.59
2023-07-19T10:11:26.552Z,31.41
2023-07-19T10:16:25.947Z,31.29
2023-07-19T10:21:20.610Z,31.61
2023-07-19T10:26:14.298Z,31.31
2023-07-19T10:31:26.591Z,31.51
2023-07-19T10:36:21.734Z,31.52
2023-07-19T10:41:23.047Z,31.64
2023-07-19T10:46:18.716Z,30.80
2023-07-19T10:51:13.022Z,31.08
2023-07-19T10:56:06.586Z,31.98
2023-07-19T11:00:58.662Z,31.80
2023-07-19T11:05:55.555Z,32.83
2023-07-19T11:10:49.677Z,31.81
2023-07-19T11:15:48.521Z,29.81
2023-07-19T11:20:40.854Z,30.67
2023-07-19T11:25:34.755Z,29.89
2023-07-19T11:30:39.497Z,29.59
2023-07-19T11:35:31.959Z,30.10
2023-07-19T11:40:28.220Z,31.22
2023-07-19T11:45:23.062Z,31.33
2023-07-19T11:50:15.944Z,31.53
2023-07-19T11:55:12.479Z,32.20
2023-07-19T12:00:06.953Z,31.77
2023-07-19T12:04:59.628Z,32.52
2023-07-19T12:09:52.523Z,31.99
2023-07-19T12:14:45.664Z,32.57
2023-07-19T12:19:41.506Z,32.33
2023-07-19T12:24:33.626Z,32.52
2023-07-19T12:29:27.160Z,32.10
2023-07-19T12:34:21.908Z,31.23
2023-07-19T12:39:16.956Z,31.15
2023-07-19T12:44:13.196Z,31.33
2023-07-19T12:49:05.471Z,31.54
2023-07-19T12:54:00.487Z,31.69
2023-07-19T12:58:53.620Z,31.75
2023-07-19T13:03:46.416Z,31.41
2023-07-19T13:08:38.968Z,31.72
2023-07-19T13:13:37.081Z,31.47
2023-07-19T13:18:31.671Z,31.82
2023-07-19T13:23:23.834Z,31.55
2023-07-19T13:28:17.282Z,31.93
2023-07-19T13:33:12.466Z,31.51
2023-07-19T13:38:07.734Z,31.26
2023-07-19T13:43:00.605Z,31.61
2023-07-19T13:47:54.639Z,31.74
2023-07-19T13:52:48.341Z,29.81
2023-07-19T13:57:40.586Z,30.02
2023-07-19T14:02:35.382Z,32.17
2023-07-19T14:07:29.992Z,30.68
2023-07-19T14:12:35.289Z,31.38
2023-07-19T14:17:29.616Z,29.92
2023-07-19T14:22:23.306Z,29.69
2023-07-19T14:27:17.808Z,29.46
2023-07-19T14:32:11.668Z,29.61
2023-07-19T14:37:06.332Z,30.15
2023-07-19T14:42:00.086Z,29.94
2023-07-19T14:46:53.535Z,30.41
2023-07-19T14:51:48.961Z,29.79
2023-07-19T14:56:41.407Z,29.66
2023-07-19T15:01:34.917Z,29.58
2023-07-19T15:06:27.571Z,29.34
2023-07-19T15:11:20.371Z,29.83
2023-07-19T15:16:12.653Z,29.33
2023-07-19T15:21:04.913Z,29.71
2023-07-19T15:26:00.392Z,28.13
2023-07-19T15:30:54.779Z,29.23
2023-07-19T15:35:49.409Z,27.78
2023-07-19T15:40:43.123Z,28.33
2023-07-19T15:45:38.941Z,27.44
2023-07-19T15:50:35.341Z,27.44
2023-07-19T15:55:29.765Z,28.82
2023-07-19T16:00:23.521Z,28.34
2023-07-19T16:05:17.806Z,29.78
2023-07-19T16:10:11.232Z,28.27
2023-07-19T16:15:06.988Z,28.86
2023-07-19T16:20:00.323Z,28.50
2023-07-19T16:24:52.943Z,28.31
2023-07-19T16:29:46.070Z,28.28
2023-07-19T16:34:44.601Z,28.45
2023-07-19T16:39:38.182Z,27.69
2023-07-19T16:44:31.377Z,27.22
2023-07-19T16:49:25.806Z,27.51
2023-07-19T16:54:19.810Z,27.51
2023-07-19T16:59:13.602Z,27.27
2023-07-19T17:04:05.996Z,27.46
2023-07-19T17:09:02.383Z,25.84
2023-07-19T17:13:54.985Z,26.43
2023-07-19T17:18:56.268Z,26.20
2023-07-19T17:23:59.748Z,23.88
2023-07-19T17:28:53.808Z,25.76
2023-07-19T17:33:46.360Z,26.05
2023-07-19T17:38:42.535Z,26.13
2023-07-19T17:43:39.850Z,22.51
2023-07-19T17:48:39.941Z,25.02
2023-07-19T17:53:40.929Z,25.80
2023-07-19T17:58:33.483Z,25.69
2023-07-19T18:03:27.702Z,23.65
2023-07-19T18:08:23.992Z,25.25
2023-07-19T18:13:19.500Z,24.85
2023-07-19T18:18:12.778Z,24.72
2023-07-19T18:28:30.510Z,23.62
2023-07-19T18:33:25.238Z,22.11
2023-07-19T18:38:23.620Z,23.41
2023-07-19T18:43:22.621Z,23.57
2023-07-19T18:48:23.779Z,21.27
2023-07-19T18:53:23.891Z,24.16
2023-07-19T18:58:25.221Z,23.95
2023-07-19T19:03:18.882Z,23.72
2023-07-19T19:08:41.928Z,23.59
2023-07-19T19:29:24.875Z,22.78
2023-07-19T19:34:32.201Z,22.51
2023-07-19T19:39:29.980Z,22.91
2023-07-19T19:55:10.531Z,19.79
2023-07-19T20:05:56.884Z,21.97
2023-07-19T20:11:10.046Z,19.86
2023-07-19T20:16:11.826Z,16.71
2023-07-19T20:26:25.901Z,19.21
2023-07-19T20:36:48.953Z,21.91
2023-07-19T20:42:17.206Z,22.43
2023-07-19T20:47:28.324Z,21.48
2023-07-19T20:52:26.373Z,22.41
2023-07-19T20:57:22.146Z,21.38
2023-07-19T21:02:20.079Z,15.99
2023-07-19T21:07:43.291Z,19.37
2023-07-19T21:12:38.257Z,21.49
2023-07-19T21:17:37.828Z,21.38
2023-07-19T21:22:46.223Z,21.19
2023-07-19T21:27:45.399Z,21.05
2023-07-19T21:32:39.831Z,20.78
2023-07-19T21:43:14.109Z,20.13
2023-07-19T21:48:08.256Z,17.93
2023-07-19T21:53:03.420Z,20.56
2023-07-19T21:57:57.097Z,19.47
2023-07-19T22:02:53.717Z,18.27
2023-07-19T22:07:48.225Z,19.55
2023-07-19T22:12:42.175Z,20.07
2023-07-19T22:17:34.577Z,19.78
2023-07-19T22:22:29.495Z,19.82
2023-07-19T22:27:21.770Z,17.98
2023-07-19T22:32:15.503Z,20.19
2023-07-19T22:37:07.520Z,20.29
2023-07-19T22:42:22.719Z,19.67
2023-07-19T22:47:17.564Z,15.86
2023-07-19T22:52:12.133Z,18.96
2023-07-19T22:57:04.944Z,19.27
2023-07-19T23:01:59.868Z,18.40
2023-07-19T23:06:54.822Z,19.39
2023-07-19T23:11:47.017Z,17.36
2023-07-19T23:16:39.215Z,18.75
2023-07-19T23:21:33.919Z,19.20
2023-07-19T23:26:31.228Z,19.22
2023-07-19T23:31:26.165Z,18.87
2023-07-19T23:36:25.306Z,18.70
2023-07-19T23:41:18.432Z,18.99
2023-07-19T23:46:19.795Z,18.94
2023-07-19T23:51:12.958Z,19.11
2023-07-19T23:56:09.498Z,18.90
